sensor_id;sensor_type;location;lat;lon;timestamp;P1;durP1;ratioP1;P2;durP2;ratioP2
30036;SDS011;36325;51.512;-0.382;2023-06-14T00:01:36;8.07;;;3.30;;
30036;SDS011;36325;51.512;-0.382;2023-06-14T00:04:04;3.85;;;2.60;;
30036;SDS011;36325;51.512;-0.382;2023-06-14T00:06:32;7.28;;;2.53;;
30036;SDS011;36325;51.512;-0.382;2023-06-14T00:09:00;7.45;;;2.83;;
30036;SDS011;36325;51.512;-0.382;2023-06-14T00:11:28;9.07;;;2.70;;
30036;SDS011;36325;51.512;-0.382;2023-06-14T00:13:57;6.32;;;2.85;;
30036;SDS011;36325;51.512;-0.382;2023-06-14T00:16:25;7.60;;;2.80;;
30036;SDS011;36325;51.512;-0.382;2023-06-14T00:18:52;7.35;;;2.65;;
30036;SDS011;36325;51.512;-0.382;2023-06-14T00:21:20;6.80;;;3.30;;
30036;SDS011;36325;51.512;-0.382;2023-06-14T00:23:47;9.18;;;2.05;;
30036;SDS011;36325;51.512;-0.382;2023-06-14T00:26:16;7.82;;;2.67;;
30036;SDS011;36325;51.512;-0.382;2023-06-14T00:28:43;5.20;;;2.88;;
30036;SDS011;36325;51.512;-0.382;2023-06-14T00:31:11;6.18;;;2.47;;
30036;SDS011;36325;51.512;-0.382;2023-06-14T00:33:38;5.40;;;2.40;;
30036;SDS011;36325;51.512;-0.382;2023-06-14T00:36:06;5.22;;;2.25;;
30036;SDS011;36325;51.512;-0.382;2023-06-14T00:38:33;4.43;;;2.20;;
30036;SDS011;36325;51.512;-0.382;2023-06-14T00:41:00;6.07;;;2.25;;
30036;SDS011;36325;51.512;-0.382;2023-06-14T00:43:28;5.25;;;2.17;;
30036;SDS011;36325;51.512;-0.382;2023-06-14T00:45:57;5.22;;;2.17;;
30036;SDS011;36325;51.512;-0.382;2023-06-14T00:48:24;3.65;;;1.90;;
30036;SDS011;36325;51.512;-0.382;2023-06-14T00:50:54;6.68;;;2.47;;
30036;SDS011;36325;51.512;-0.382;2023-06-14T00:53:22;4.35;;;2.00;;
30036;SDS011;36325;51.512;-0.382;2023-06-14T00:55:51;7.80;;;2.50;;
30036;SDS011;36325;51.512;-0.382;2023-06-14T00:58:19;7.22;;;2.88;;
30036;SDS011;36325;51.512;-0.382;2023-06-14T01:00:49;6.63;;;2.53;;
30036;SDS011;36325;51.512;-0.382;2023-06-14T01:03:17;8.82;;;2.15;;
30036;SDS011;36325;51.512;-0.382;2023-06-14T01:05:53;3.27;;;1.83;;
30036;SDS011;36325;51.512;-0.382;2023-06-14T01:08:36;9.05;;;2.85;;
30036;SDS011;36325;51.512;-0.382;2023-06-14T01:11:18;7.85;;;3.00;;
30036;SDS011;36325;51.512;-0.382;2023-06-14T01:13:55;5.82;;;2.05;;
30036;SDS011;36325;51.512;-0.382;2023-06-14T01:16:23;10.25;;;2.20;;
30036;SDS011;36325;51.512;-0.382;2023-06-14T01:18:52;8.70;;;2.33;;
30036;SDS011;36325;51.512;-0.382;2023-06-14T01:21:23;10.48;;;2.72;;
30036;SDS011;36325;51.512;-0.382;2023-06-14T01:23:51;12.35;;;2.65;;
30036;SDS011;36325;51.512;-0.382;2023-06-14T01:26:20;4.55;;;2.55;;
30036;SDS011;36325;51.512;-0.382;2023-06-14T01:28:50;7.22;;;2.83;;
30036;SDS011;36325;51.512;-0.382;2023-06-14T01:31:22;7.90;;;2.17;;
30036;SDS011;36325;51.512;-0.382;2023-06-14T01:33:50;10.50;;;2.83;;
30036;SDS011;36325;51.512;-0.382;2023-06-14T01:36:19;7.68;;;2.42;;
30036;SDS011;36325;51.512;-0.382;2023-06-14T01:38:47;12.05;;;3.25;;
30036;SDS011;36325;51.512;-0.382;2023-06-14T01:41:18;12.18;;;3.70;;
30036;SDS011;36325;51.512;-0.382;2023-06-14T01:43:47;13.85;;;3.42;;
30036;SDS011;36325;51.512;-0.382;2023-06-14T01:46:16;11.07;;;2.58;;
30036;SDS011;36325;51.512;-0.382;2023-06-14T01:48:45;6.95;;;2.80;;
30036;SDS011;36325;51.512;-0.382;2023-06-14T01:51:13;11.10;;;3.25;;
30036;SDS011;36325;51.512;-0.382;2023-06-14T01:53:41;7.50;;;2.58;;
30036;SDS011;36325;51.512;-0.382;2023-06-14T01:56:09;12.55;;;3.08;;
30036;SDS011;36325;51.512;-0.382;2023-06-14T01:58:36;7.97;;;2.88;;
30036;SDS011;36325;51.512;-0.382;2023-06-14T02:01:04;11.73;;;3.17;;
30036;SDS011;36325;51.512;-0.382;2023-06-14T02:03:31;7.60;;;3.10;;
30036;SDS011;36325;51.512;-0.382;2023-06-14T02:05:59;8.60;;;3.40;;
30036;SDS011;36325;51.512;-0.382;2023-06-14T02:08:26;14.15;;;3.00;;
30036;SDS011;36325;51.512;-0.382;2023-06-14T02:10:53;12.27;;;2.92;;
30036;SDS011;36325;51.512;-0.382;2023-06-14T02:13:21;7.57;;;2.92;;
30036;SDS011;36325;51.512;-0.382;2023-06-14T02:15:49;8.38;;;3.40;;
30036;SDS011;36325;51.512;-0.382;2023-06-14T02:18:21;5.85;;;2.60;;
30036;SDS011;36325;51.512;-0.382;2023-06-14T02:20:49;7.55;;;3.08;;
30036;SDS011;36325;51.512;-0.382;2023-06-14T02:23:16;11.35;;;3.40;;
30036;SDS011;36325;51.512;-0.382;2023-06-14T02:25:44;9.98;;;2.92;;
30036;SDS011;36325;51.512;-0.382;2023-06-14T02:28:12;12.45;;;3.85;;
30036;SDS011;36325;51.512;-0.382;2023-06-14T02:30:40;8.50;;;3.50;;
30036;SDS011;36325;51.512;-0.382;2023-06-14T02:33:07;8.85;;;3.40;;
30036;SDS011;36325;51.512;-0.382;2023-06-14T02:35:34;8.60;;;3.05;;
30036;SDS011;36325;51.512;-0.382;2023-06-14T02:38:06;15.25;;;3.90;;
30036;SDS011;36325;51.512;-0.382;2023-06-14T02:40:40;11.95;;;3.47;;
30036;SDS011;36325;51.512;-0.382;2023-06-14T02:43:09;12.57;;;3.85;;
30036;SDS011;36325;51.512;-0.382;2023-06-14T02:45:38;10.13;;;3.88;;
30036;SDS011;36325;51.512;-0.382;2023-06-14T02:48:05;9.60;;;3.75;;
30036;SDS011;36325;51.512;-0.382;2023-06-14T02:50:32;14.73;;;3.65;;
30036;SDS011;36325;51.512;-0.382;2023-06-14T02:52:59;17.83;;;3.35;;
30036;SDS011;36325;51.512;-0.382;2023-06-14T02:55:29;9.52;;;3.55;;
30036;SDS011;36325;51.512;-0.382;2023-06-14T02:57:57;11.45;;;3.65;;
30036;SDS011;36325;51.512;-0.382;2023-06-14T03:00:27;13.70;;;3.10;;
30036;SDS011;36325;51.512;-0.382;2023-06-14T03:02:57;11.95;;;3.72;;
30036;SDS011;36325;51.512;-0.382;2023-06-14T03:05:24;10.45;;;3.35;;
30036;SDS011;36325;51.512;-0.382;2023-06-14T03:07:55;11.75;;;3.67;;
30036;SDS011;36325;51.512;-0.382;2023-06-14T03:10:22;7.00;;;3.47;;
30036;SDS011;36325;51.512;-0.382;2023-06-14T03:12:50;11.32;;;3.35;;
30036;SDS011;36325;51.512;-0.382;2023-06-14T03:15:20;8.55;;;3.25;;
30036;SDS011;36325;51.512;-0.382;2023-06-14T03:17:51;9.10;;;3.42;;
30036;SDS011;36325;51.512;-0.382;2023-06-14T03:20:20;15.80;;;3.75;;
30036;SDS011;36325;51.512;-0.382;2023-06-14T03:22:48;12.32;;;3.95;;
30036;SDS011;36325;51.512;-0.382;2023-06-14T03:25:15;12.48;;;3.33;;
30036;SDS011;36325;51.512;-0.382;2023-06-14T03:27:45;16.95;;;3.85;;
30036;SDS011;36325;51.512;-0.382;2023-06-14T03:30:13;12.77;;;4.40;;
30036;SDS011;36325;51.512;-0.382;2023-06-14T03:32:42;9.32;;;4.18;;
30036;SDS011;36325;51.512;-0.382;2023-06-14T03:35:10;8.25;;;3.55;;
30036;SDS011;36325;51.512;-0.382;2023-06-14T03:37:45;15.75;;;4.53;;
30036;SDS011;36325;51.512;-0.382;2023-06-14T03:40:15;11.90;;;3.67;;
30036;SDS011;36325;51.512;-0.382;2023-06-14T03:42:48;11.25;;;4.03;;
30036;SDS011;36325;51.512;-0.382;2023-06-14T03:45:15;11.80;;;3.70;;
30036;SDS011;36325;51.512;-0.382;2023-06-14T03:47:43;9.32;;;4.15;;
30036;SDS011;36325;51.512;-0.382;2023-06-14T03:50:11;13.27;;;4.72;;
30036;SDS011;36325;51.512;-0.382;2023-06-14T03:52:39;7.88;;;4.05;;
30036;SDS011;36325;51.512;-0.382;2023-06-14T03:55:10;13.45;;;4.57;;
30036;SDS011;36325;51.512;-0.382;2023-06-14T03:57:43;12.25;;;4.18;;
30036;SDS011;36325;51.512;-0.382;2023-06-14T04:00:13;14.15;;;3.88;;
30036;SDS011;36325;51.512;-0.382;2023-06-14T04:02:42;8.02;;;4.13;;
30036;SDS011;36325;51.512;-0.382;2023-06-14T04:05:10;10.02;;;4.38;;
30036;SDS011;36325;51.512;-0.382;2023-06-14T04:07:43;12.85;;;4.82;;
30036;SDS011;36325;51.512;-0.382;2023-06-14T04:10:12;12.63;;;4.53;;
30036;SDS011;36325;51.512;-0.382;2023-06-14T04:12:40;10.85;;;3.85;;
30036;SDS011;36325;51.512;-0.382;2023-06-14T04:15:09;12.35;;;4.57;;
30036;SDS011;36325;51.512;-0.382;2023-06-14T04:17:46;12.07;;;4.38;;
30036;SDS011;36325;51.512;-0.382;2023-06-14T04:20:15;11.35;;;3.30;;
30036;SDS011;36325;51.512;-0.382;2023-06-14T04:22:43;13.98;;;4.20;;
30036;SDS011;36325;51.512;-0.382;2023-06-14T04:25:11;12.55;;;4.47;;
30036;SDS011;36325;51.512;-0.382;2023-06-14T04:27:40;10.02;;;4.57;;
30036;SDS011;36325;51.512;-0.382;2023-06-14T04:30:09;14.32;;;4.43;;
30036;SDS011;36325;51.512;-0.382;2023-06-14T04:32:44;16.27;;;3.83;;
30036;SDS011;36325;51.512;-0.382;2023-06-14T04:35:13;13.18;;;3.60;;
30036;SDS011;36325;51.512;-0.382;2023-06-14T04:37:43;13.00;;;4.97;;
30036;SDS011;36325;51.512;-0.382;2023-06-14T04:40:12;13.20;;;4.30;;
30036;SDS011;36325;51.512;-0.382;2023-06-14T04:42:40;9.57;;;3.67;;
30036;SDS011;36325;51.512;-0.382;2023-06-14T04:45:14;12.75;;;4.80;;
30036;SDS011;36325;51.512;-0.382;2023-06-14T04:47:44;12.38;;;4.18;;
30036;SDS011;36325;51.512;-0.382;2023-06-14T04:50:12;16.65;;;3.92;;
30036;SDS011;36325;51.512;-0.382;2023-06-14T04:52:39;10.18;;;4.07;;
30036;SDS011;36325;51.512;-0.382;2023-06-14T04:55:09;14.80;;;4.57;;
30036;SDS011;36325;51.512;-0.382;2023-06-14T04:57:39;11.90;;;4.43;;
30036;SDS011;36325;51.512;-0.382;2023-06-14T05:02:38;11.45;;;4.22;;
30036;SDS011;36325;51.512;-0.382;2023-06-14T05:05:07;13.45;;;4.15;;
30036;SDS011;36325;51.512;-0.382;2023-06-14T05:07:35;18.45;;;3.92;;
30036;SDS011;36325;51.512;-0.382;2023-06-14T05:10:04;14.32;;;4.78;;
30036;SDS011;36325;51.512;-0.382;2023-06-14T05:12:32;9.65;;;3.75;;
30036;SDS011;36325;51.512;-0.382;2023-06-14T05:15:02;19.40;;;4.57;;
30036;SDS011;36325;51.512;-0.382;2023-06-14T05:17:29;11.40;;;4.22;;
30036;SDS011;36325;51.512;-0.382;2023-06-14T05:19:56;9.85;;;4.10;;
30036;SDS011;36325;51.512;-0.382;2023-06-14T05:22:24;15.75;;;4.15;;
30036;SDS011;36325;51.512;-0.382;2023-06-14T05:24:51;17.08;;;4.75;;
30036;SDS011;36325;51.512;-0.382;2023-06-14T05:27:20;15.00;;;4.25;;
30036;SDS011;36325;51.512;-0.382;2023-06-14T05:29:47;10.75;;;4.32;;
30036;SDS011;36325;51.512;-0.382;2023-06-14T05:32:15;13.90;;;4.50;;
30036;SDS011;36325;51.512;-0.382;2023-06-14T05:34:42;13.73;;;4.70;;
30036;SDS011;36325;51.512;-0.382;2023-06-14T05:37:10;18.20;;;6.45;;
30036;SDS011;36325;51.512;-0.382;2023-06-14T05:39:37;13.80;;;5.38;;
30036;SDS011;36325;51.512;-0.382;2023-06-14T05:42:04;14.15;;;4.85;;
30036;SDS011;36325;51.512;-0.382;2023-06-14T05:44:32;22.55;;;7.30;;
30036;SDS011;36325;51.512;-0.382;2023-06-14T05:46:59;14.38;;;6.03;;
30036;SDS011;36325;51.512;-0.382;2023-06-14T05:49:29;14.80;;;4.40;;
30036;SDS011;36325;51.512;-0.382;2023-06-14T05:51:57;17.13;;;5.32;;
30036;SDS011;36325;51.512;-0.382;2023-06-14T05:54:24;18.67;;;6.70;;
30036;SDS011;36325;51.512;-0.382;2023-06-14T05:56:52;12.52;;;4.65;;
30036;SDS011;36325;51.512;-0.382;2023-06-14T05:59:19;13.02;;;5.30;;
30036;SDS011;36325;51.512;-0.382;2023-06-14T06:01:47;9.93;;;4.30;;
30036;SDS011;36325;51.512;-0.382;2023-06-14T06:04:15;16.77;;;4.97;;
30036;SDS011;36325;51.512;-0.382;2023-06-14T06:06:42;20.90;;;6.22;;
30036;SDS011;36325;51.512;-0.382;2023-06-14T06:09:09;13.93;;;5.60;;
30036;SDS011;36325;51.512;-0.382;2023-06-14T06:11:36;17.60;;;7.45;;
30036;SDS011;36325;51.512;-0.382;2023-06-14T06:14:17;22.85;;;7.95;;
30036;SDS011;36325;51.512;-0.382;2023-06-14T06:16:44;21.40;;;7.25;;
30036;SDS011;36325;51.512;-0.382;2023-06-14T06:19:12;19.40;;;5.78;;
30036;SDS011;36325;51.512;-0.382;2023-06-14T06:21:39;15.75;;;4.80;;
30036;SDS011;36325;51.512;-0.382;2023-06-14T06:24:07;17.80;;;5.10;;
30036;SDS011;36325;51.512;-0.382;2023-06-14T06:26:34;16.90;;;4.47;;
30036;SDS011;36325;51.512;-0.382;2023-06-14T06:29:02;17.70;;;5.20;;
30036;SDS011;36325;51.512;-0.382;2023-06-14T06:31:29;16.52;;;4.80;;
30036;SDS011;36325;51.512;-0.382;2023-06-14T06:33:57;14.50;;;4.53;;
30036;SDS011;36325;51.512;-0.382;2023-06-14T06:36:25;14.20;;;4.45;;
30036;SDS011;36325;51.512;-0.382;2023-06-14T06:38:52;9.23;;;4.35;;
30036;SDS011;36325;51.512;-0.382;2023-06-14T06:41:19;21.90;;;5.85;;
30036;SDS011;36325;51.512;-0.382;2023-06-14T06:43:48;16.20;;;4.68;;
30036;SDS011;36325;51.512;-0.382;2023-06-14T06:46:16;13.10;;;5.10;;
30036;SDS011;36325;51.512;-0.382;2023-06-14T06:48:47;11.48;;;4.65;;
30036;SDS011;36325;51.512;-0.382;2023-06-14T06:51:17;10.30;;;4.38;;
30036;SDS011;36325;51.512;-0.382;2023-06-14T06:53:45;16.65;;;4.68;;
30036;SDS011;36325;51.512;-0.382;2023-06-14T06:56:20;11.82;;;4.72;;
30036;SDS011;36325;51.512;-0.382;2023-06-14T06:58:50;13.85;;;4.60;;
30036;SDS011;36325;51.512;-0.382;2023-06-14T07:01:17;16.20;;;4.35;;
30036;SDS011;36325;51.512;-0.382;2023-06-14T07:03:46;13.88;;;4.13;;
30036;SDS011;36325;51.512;-0.382;2023-06-14T07:06:13;25.88;;;5.03;;
30036;SDS011;36325;51.512;-0.382;2023-06-14T07:08:41;18.92;;;4.80;;
30036;SDS011;36325;51.512;-0.382;2023-06-14T07:11:08;12.15;;;4.93;;
30036;SDS011;36325;51.512;-0.382;2023-06-14T07:13:35;12.05;;;5.25;;
30036;SDS011;36325;51.512;-0.382;2023-06-14T07:16:03;17.13;;;4.25;;
30036;SDS011;36325;51.512;-0.382;2023-06-14T07:18:31;15.50;;;4.43;;
30036;SDS011;36325;51.512;-0.382;2023-06-14T07:20:58;12.55;;;4.32;;
30036;SDS011;36325;51.512;-0.382;2023-06-14T07:23:25;17.48;;;5.00;;
30036;SDS011;36325;51.512;-0.382;2023-06-14T07:25:53;13.98;;;5.30;;
30036;SDS011;36325;51.512;-0.382;2023-06-14T07:28:21;12.25;;;4.93;;
30036;SDS011;36325;51.512;-0.382;2023-06-14T07:30:48;15.30;;;5.00;;
30036;SDS011;36325;51.512;-0.382;2023-06-14T07:33:15;11.85;;;4.38;;
30036;SDS011;36325;51.512;-0.382;2023-06-14T07:35:43;13.95;;;4.15;;
30036;SDS011;36325;51.512;-0.382;2023-06-14T07:38:10;16.63;;;5.95;;
30036;SDS011;36325;51.512;-0.382;2023-06-14T07:40:38;13.68;;;4.95;;
30036;SDS011;36325;51.512;-0.382;2023-06-14T07:43:05;14.13;;;4.10;;
30036;SDS011;36325;51.512;-0.382;2023-06-14T07:45:32;15.25;;;4.95;;
30036;SDS011;36325;51.512;-0.382;2023-06-14T07:47:59;14.15;;;4.82;;
30036;SDS011;36325;51.512;-0.382;2023-06-14T07:50:26;17.35;;;4.38;;
30036;SDS011;36325;51.512;-0.382;2023-06-14T07:52:54;15.50;;;4.55;;
30036;SDS011;36325;51.512;-0.382;2023-06-14T07:55:21;12.98;;;4.38;;
30036;SDS011;36325;51.512;-0.382;2023-06-14T07:57:48;14.75;;;4.72;;
30036;SDS011;36325;51.512;-0.382;2023-06-14T08:00:16;21.30;;;5.10;;
30036;SDS011;36325;51.512;-0.382;2023-06-14T08:02:44;13.80;;;4.75;;
30036;SDS011;36325;51.512;-0.382;2023-06-14T08:05:12;16.77;;;4.32;;
30036;SDS011;36325;51.512;-0.382;2023-06-14T08:07:39;13.13;;;4.72;;
30036;SDS011;36325;51.512;-0.382;2023-06-14T08:10:07;14.90;;;4.88;;
30036;SDS011;36325;51.512;-0.382;2023-06-14T08:12:34;9.88;;;4.40;;
30036;SDS011;36325;51.512;-0.382;2023-06-14T08:15:03;15.65;;;4.50;;
30036;SDS011;36325;51.512;-0.382;2023-06-14T08:17:33;16.58;;;4.45;;
30036;SDS011;36325;51.512;-0.382;2023-06-14T08:20:02;12.68;;;4.88;;
30036;SDS011;36325;51.512;-0.382;2023-06-14T08:22:31;16.45;;;5.75;;
30036;SDS011;36325;51.512;-0.382;2023-06-14T08:25:00;14.40;;;5.53;;
30036;SDS011;36325;51.512;-0.382;2023-06-14T08:27:28;13.90;;;4.95;;
30036;SDS011;36325;51.512;-0.382;2023-06-14T08:29:56;13.80;;;4.10;;
30036;SDS011;36325;51.512;-0.382;2023-06-14T08:32:23;21.52;;;4.93;;
30036;SDS011;36325;51.512;-0.382;2023-06-14T08:34:50;18.90;;;5.00;;
30036;SDS011;36325;51.512;-0.382;2023-06-14T08:37:29;15.20;;;4.10;;
30036;SDS011;36325;51.512;-0.382;2023-06-14T08:39:57;15.25;;;5.93;;
30036;SDS011;36325;51.512;-0.382;2023-06-14T08:42:24;16.75;;;4.60;;
30036;SDS011;36325;51.512;-0.382;2023-06-14T08:44:57;12.40;;;5.32;;
30036;SDS011;36325;51.512;-0.382;2023-06-14T08:47:25;13.88;;;4.60;;
30036;SDS011;36325;51.512;-0.382;2023-06-14T08:49:55;16.10;;;4.90;;
30036;SDS011;36325;51.512;-0.382;2023-06-14T08:52:25;13.50;;;4.78;;
30036;SDS011;36325;51.512;-0.382;2023-06-14T08:57:31;8.30;;;4.63;;
30036;SDS011;36325;51.512;-0.382;2023-06-14T09:00:04;11.65;;;4.22;;
30036;SDS011;36325;51.512;-0.382;2023-06-14T09:02:39;12.95;;;4.60;;
30036;SDS011;36325;51.512;-0.382;2023-06-14T09:05:10;12.10;;;5.00;;
30036;SDS011;36325;51.512;-0.382;2023-06-14T09:07:40;20.02;;;5.25;;
30036;SDS011;36325;51.512;-0.382;2023-06-14T09:10:09;12.18;;;4.90;;
30036;SDS011;36325;51.512;-0.382;2023-06-14T09:12:38;14.05;;;5.35;;
30036;SDS011;36325;51.512;-0.382;2023-06-14T09:15:06;12.10;;;4.65;;
30036;SDS011;36325;51.512;-0.382;2023-06-14T09:17:35;12.30;;;5.00;;
30036;SDS011;36325;51.512;-0.382;2023-06-14T09:20:03;12.43;;;4.78;;
30036;SDS011;36325;51.512;-0.382;2023-06-14T09:22:33;11.65;;;4.53;;
30036;SDS011;36325;51.512;-0.382;2023-06-14T09:25:00;10.93;;;4.95;;
30036;SDS011;36325;51.512;-0.382;2023-06-14T09:27:28;12.85;;;5.47;;
30036;SDS011;36325;51.512;-0.382;2023-06-14T09:30:03;12.95;;;5.47;;
30036;SDS011;36325;51.512;-0.382;2023-06-14T09:32:32;15.32;;;5.88;;
30036;SDS011;36325;51.512;-0.382;2023-06-14T09:35:07;13.05;;;5.38;;
30036;SDS011;36325;51.512;-0.382;2023-06-14T09:37:35;15.82;;;5.38;;
30036;SDS011;36325;51.512;-0.382;2023-06-14T09:40:05;10.10;;;5.38;;
30036;SDS011;36325;51.512;-0.382;2023-06-14T09:42:33;13.07;;;5.55;;
30036;SDS011;36325;51.512;-0.382;2023-06-14T09:45:03;14.88;;;5.35;;
30036;SDS011;36325;51.512;-0.382;2023-06-14T09:47:31;12.85;;;5.63;;
30036;SDS011;36325;51.512;-0.382;2023-06-14T09:49:58;10.98;;;4.65;;
30036;SDS011;36325;51.512;-0.382;2023-06-14T09:52:28;12.63;;;5.28;;
30036;SDS011;36325;51.512;-0.382;2023-06-14T09:54:56;13.13;;;4.95;;
30036;SDS011;36325;51.512;-0.382;2023-06-14T09:57:26;13.88;;;5.00;;
30036;SDS011;36325;51.512;-0.382;2023-06-14T09:59:58;14.95;;;5.18;;
30036;SDS011;36325;51.512;-0.382;2023-06-14T10:02:38;10.70;;;5.68;;
30036;SDS011;36325;51.512;-0.382;2023-06-14T10:05:07;17.98;;;5.60;;
30036;SDS011;36325;51.512;-0.382;2023-06-14T10:07:40;10.35;;;5.57;;
30036;SDS011;36325;51.512;-0.382;2023-06-14T10:10:22;13.60;;;5.00;;
30036;SDS011;36325;51.512;-0.382;2023-06-14T10:12:49;12.75;;;5.07;;
30036;SDS011;36325;51.512;-0.382;2023-06-14T10:15:23;18.73;;;5.68;;
30036;SDS011;36325;51.512;-0.382;2023-06-14T10:20:33;9.88;;;5.88;;
30036;SDS011;36325;51.512;-0.382;2023-06-14T10:23:19;10.68;;;5.05;;
30036;SDS011;36325;51.512;-0.382;2023-06-14T10:25:49;15.32;;;4.95;;
30036;SDS011;36325;51.512;-0.382;2023-06-14T10:28:23;14.02;;;5.55;;
30036;SDS011;36325;51.512;-0.382;2023-06-14T10:33:50;10.32;;;5.45;;
30036;SDS011;36325;51.512;-0.382;2023-06-14T10:36:27;14.88;;;5.50;;
30036;SDS011;36325;51.512;-0.382;2023-06-14T10:39:01;15.15;;;5.43;;
30036;SDS011;36325;51.512;-0.382;2023-06-14T10:41:31;11.30;;;5.22;;
30036;SDS011;36325;51.512;-0.382;2023-06-14T10:44:30;10.27;;;5.07;;
30036;SDS011;36325;51.512;-0.382;2023-06-14T10:47:00;12.50;;;5.20;;
30036;SDS011;36325;51.512;-0.382;2023-06-14T10:49:41;12.15;;;4.78;;
30036;SDS011;36325;51.512;-0.382;2023-06-14T10:52:13;11.57;;;6.18;;
30036;SDS011;36325;51.512;-0.382;2023-06-14T10:57:30;13.10;;;5.30;;
30036;SDS011;36325;51.512;-0.382;2023-06-14T11:00:14;10.27;;;5.53;;
30036;SDS011;36325;51.512;-0.382;2023-06-14T11:05:55;11.40;;;5.63;;
30036;SDS011;36325;51.512;-0.382;2023-06-14T11:11:12;13.07;;;5.75;;
30036;SDS011;36325;51.512;-0.382;2023-06-14T11:13:41;11.73;;;5.45;;
30036;SDS011;36325;51.512;-0.382;2023-06-14T11:16:15;9.30;;;5.28;;
30036;SDS011;36325;51.512;-0.382;2023-06-14T11:18:45;14.30;;;5.82;;
30036;SDS011;36325;51.512;-0.382;2023-06-14T11:21:16;7.78;;;5.60;;
30036;SDS011;36325;51.512;-0.382;2023-06-14T11:23:48;11.63;;;5.65;;
30036;SDS011;36325;51.512;-0.382;2023-06-14T11:26:26;14.77;;;6.25;;
30036;SDS011;36325;51.512;-0.382;2023-06-14T11:28:58;14.40;;;5.97;;
30036;SDS011;36325;51.512;-0.382;2023-06-14T11:31:27;14.57;;;5.70;;
30036;SDS011;36325;51.512;-0.382;2023-06-14T11:33:56;14.50;;;6.13;;
30036;SDS011;36325;51.512;-0.382;2023-06-14T11:36:28;7.95;;;5.78;;
30036;SDS011;36325;51.512;-0.382;2023-06-14T11:38:58;9.60;;;5.78;;
30036;SDS011;36325;51.512;-0.382;2023-06-14T11:41:32;12.00;;;6.00;;
30036;SDS011;36325;51.512;-0.382;2023-06-14T11:44:01;8.45;;;5.50;;
30036;SDS011;36325;51.512;-0.382;2023-06-14T11:46:29;13.60;;;6.53;;
30036;SDS011;36325;51.512;-0.382;2023-06-14T11:48:57;7.53;;;5.55;;
30036;SDS011;36325;51.512;-0.382;2023-06-14T11:51:24;10.50;;;5.68;;
30036;SDS011;36325;51.512;-0.382;2023-06-14T11:53:52;9.80;;;6.22;;
30036;SDS011;36325;51.512;-0.382;2023-06-14T11:56:19;11.57;;;6.10;;
30036;SDS011;36325;51.512;-0.382;2023-06-14T11:58:47;13.05;;;6.25;;
30036;SDS011;36325;51.512;-0.382;2023-06-14T12:01:14;11.38;;;6.07;;
30036;SDS011;36325;51.512;-0.382;2023-06-14T12:03:47;7.03;;;5.43;;
30036;SDS011;36325;51.512;-0.382;2023-06-14T12:06:15;6.88;;;5.18;;
30036;SDS011;36325;51.512;-0.382;2023-06-14T12:08:44;14.93;;;5.28;;
30036;SDS011;36325;51.512;-0.382;2023-06-14T12:11:12;10.35;;;5.35;;
30036;SDS011;36325;51.512;-0.382;2023-06-14T12:13:40;10.15;;;5.68;;
30036;SDS011;36325;51.512;-0.382;2023-06-14T12:16:11;10.00;;;5.65;;
30036;SDS011;36325;51.512;-0.382;2023-06-14T12:18:39;13.95;;;7.22;;
30036;SDS011;36325;51.512;-0.382;2023-06-14T12:21:08;12.05;;;5.95;;
30036;SDS011;36325;51.512;-0.382;2023-06-14T12:23:42;13.38;;;6.45;;
30036;SDS011;36325;51.512;-0.382;2023-06-14T12:26:15;13.88;;;5.30;;
30036;SDS011;36325;51.512;-0.382;2023-06-14T12:28:49;8.18;;;5.70;;
30036;SDS011;36325;51.512;-0.382;2023-06-14T12:31:18;9.48;;;5.07;;
30036;SDS011;36325;51.512;-0.382;2023-06-14T12:33:46;8.48;;;5.47;;
30036;SDS011;36325;51.512;-0.382;2023-06-14T12:36:15;10.88;;;5.40;;
30036;SDS011;36325;51.512;-0.382;2023-06-14T12:38:46;9.55;;;5.85;;
30036;SDS011;36325;51.512;-0.382;2023-06-14T12:41:14;9.75;;;5.95;;
30036;SDS011;36325;51.512;-0.382;2023-06-14T12:43:42;7.45;;;5.70;;
30036;SDS011;36325;51.512;-0.382;2023-06-14T12:46:10;11.25;;;6.20;;
30036;SDS011;36325;51.512;-0.382;2023-06-14T12:48:42;10.50;;;5.70;;
30036;SDS011;36325;51.512;-0.382;2023-06-14T12:51:12;21.63;;;9.15;;
30036;SDS011;36325;51.512;-0.382;2023-06-14T12:53:39;20.00;;;6.65;;
30036;SDS011;36325;51.512;-0.382;2023-06-14T12:56:07;19.63;;;9.18;;
30036;SDS011;36325;51.512;-0.382;2023-06-14T12:58:34;25.65;;;12.75;;
30036;SDS011;36325;51.512;-0.382;2023-06-14T13:01:01;16.08;;;7.50;;
30036;SDS011;36325;51.512;-0.382;2023-06-14T13:03:29;19.65;;;7.63;;
30036;SDS011;36325;51.512;-0.382;2023-06-14T13:05:56;29.48;;;11.82;;
30036;SDS011;36325;51.512;-0.382;2023-06-14T13:08:24;10.50;;;6.35;;
30036;SDS011;36325;51.512;-0.382;2023-06-14T13:10:51;14.52;;;5.60;;
30036;SDS011;36325;51.512;-0.382;2023-06-14T13:13:18;10.45;;;5.80;;
30036;SDS011;36325;51.512;-0.382;2023-06-14T13:15:46;15.82;;;5.82;;
30036;SDS011;36325;51.512;-0.382;2023-06-14T13:18:14;7.82;;;5.60;;
30036;SDS011;36325;51.512;-0.382;2023-06-14T13:20:42;10.25;;;5.63;;
30036;SDS011;36325;51.512;-0.382;2023-06-14T13:23:09;9.38;;;5.95;;
30036;SDS011;36325;51.512;-0.382;2023-06-14T13:25:37;10.02;;;6.30;;
30036;SDS011;36325;51.512;-0.382;2023-06-14T13:28:04;9.05;;;6.00;;
30036;SDS011;36325;51.512;-0.382;2023-06-14T13:30:32;9.13;;;5.53;;
30036;SDS011;36325;51.512;-0.382;2023-06-14T13:33:00;10.02;;;5.40;;
30036;SDS011;36325;51.512;-0.382;2023-06-14T13:35:28;8.93;;;5.85;;
30036;SDS011;36325;51.512;-0.382;2023-06-14T13:37:58;7.13;;;4.57;;
30036;SDS011;36325;51.512;-0.382;2023-06-14T13:40:25;7.00;;;5.30;;
30036;SDS011;36325;51.512;-0.382;2023-06-14T13:42:53;8.88;;;5.85;;
30036;SDS011;36325;51.512;-0.382;2023-06-14T13:45:20;8.10;;;5.47;;
30036;SDS011;36325;51.512;-0.382;2023-06-14T13:47:53;9.20;;;5.97;;
30036;SDS011;36325;51.512;-0.382;2023-06-14T13:50:21;17.80;;;6.57;;
30036;SDS011;36325;51.512;-0.382;2023-06-14T13:52:48;10.88;;;5.93;;
30036;SDS011;36325;51.512;-0.382;2023-06-14T13:55:16;9.30;;;6.07;;
30036;SDS011;36325;51.512;-0.382;2023-06-14T13:57:43;11.65;;;5.97;;
30036;SDS011;36325;51.512;-0.382;2023-06-14T14:00:11;7.90;;;5.80;;
30036;SDS011;36325;51.512;-0.382;2023-06-14T14:02:40;14.07;;;6.00;;
30036;SDS011;36325;51.512;-0.382;2023-06-14T14:05:08;8.57;;;5.75;;
30036;SDS011;36325;51.512;-0.382;2023-06-14T14:07:35;7.00;;;5.32;;
30036;SDS011;36325;51.512;-0.382;2023-06-14T14:10:04;7.35;;;5.68;;
30036;SDS011;36325;51.512;-0.382;2023-06-14T14:12:32;13.13;;;6.40;;
30036;SDS011;36325;51.512;-0.382;2023-06-14T14:14:59;9.68;;;5.57;;
30036;SDS011;36325;51.512;-0.382;2023-06-14T14:17:27;10.68;;;5.80;;
30036;SDS011;36325;51.512;-0.382;2023-06-14T14:19:54;12.13;;;5.30;;
30036;SDS011;36325;51.512;-0.382;2023-06-14T14:22:22;8.60;;;5.65;;
30036;SDS011;36325;51.512;-0.382;2023-06-14T14:24:49;8.88;;;5.78;;
30036;SDS011;36325;51.512;-0.382;2023-06-14T14:27:16;8.18;;;5.68;;
30036;SDS011;36325;51.512;-0.382;2023-06-14T14:29:44;12.65;;;6.13;;
30036;SDS011;36325;51.512;-0.382;2023-06-14T14:32:11;8.82;;;5.38;;
30036;SDS011;36325;51.512;-0.382;2023-06-14T14:34:40;16.63;;;6.00;;
30036;SDS011;36325;51.512;-0.382;2023-06-14T14:37:08;15.18;;;5.50;;
30036;SDS011;36325;51.512;-0.382;2023-06-14T14:39:36;8.35;;;5.90;;
30036;SDS011;36325;51.512;-0.382;2023-06-14T14:42:04;8.75;;;5.90;;
30036;SDS011;36325;51.512;-0.382;2023-06-14T14:44:32;17.00;;;6.65;;
30036;SDS011;36325;51.512;-0.382;2023-06-14T14:46:59;14.98;;;6.53;;
30036;SDS011;36325;51.512;-0.382;2023-06-14T14:49:26;16.52;;;5.47;;
30036;SDS011;36325;51.512;-0.382;2023-06-14T14:51:53;10.30;;;5.40;;
30036;SDS011;36325;51.512;-0.382;2023-06-14T14:54:26;10.45;;;6.25;;
30036;SDS011;36325;51.512;-0.382;2023-06-14T14:56:55;13.02;;;5.80;;